Terminal Aerodrome Forecast
Issued by NWS

Home | Current Version | Previous Version | Text Only | Print | Product List | Glossary On
Versions: 1 2 3 4 5 6 7 8 9 10 11 12 13 14 15 16 17 18 19
000
FTUS45 KRIW 211700
TAFCPR
TAF
KCPR 211733Z 2118/2218 13005KT P6SM SCT025
     FM212000 08010G16KT P6SM SCT040 BKN060
     FM220400 09007KT P6SM SCT060 BKN110
     FM221600 12009KT P6SM SCT030 BKN060=

USA.gov is the U.S. government's official web portal to all federal, state and local government web resources and services.